nws-alerts: Checking more than four warning/county codes can delay the loading of your pages. You should use a cron job to get the data.
EllijayWeather Station Historical Data
Daily Summary for November 22, 2018 Units:  Metric    English   Both
Daily Weekly Monthly Yearly Custom
  High: Low: Average:
Temperature: 16.1 °C -1.8 °C 5.4 °C
Dew Point: 5.7 °C -8 °C -1.3 °C
Humidity: 77% 43% 63%
Wind Speed: 3.2km/h 0km/h 0km/h
Wind Gust: 6.4km/h - -
Wind- - NW
Pressure: 1031 hPa 1027 hPa -
Precipitation: 0 mm    
Historical Graphs
 
 
Tabular Data for November 22, 2018
Time Temperature Dew Point Pressure Wind Wind Speed Wind Gust Humidity Rainfall Rate (Hourly) solar
00:04 0.9 °C -3 °C 1028.3 hPa Calm     75% 0 mm meteobridge W/m2
00:09 0.8 °C -3.1 °C 1028.3 hPa Calm     75% 0 mm meteobridge W/m2
00:14 0.7 °C -3.2 °C 1028.3 hPa Calm     75% 0 mm meteobridge W/m2
00:19 0.6 °C -3.3 °C 1028.3 hPa Calm     75% 0 mm meteobridge W/m2
00:23 0.6 °C -3.3 °C 1028.3 hPa Calm     75% 0 mm meteobridge W/m2
00:29 0.5 °C -3.6 °C 1028.3 hPa Calm     74% 0 mm meteobridge W/m2
00:34 0.4 °C -3.7 °C 1028.3 hPa Calm     74% 0 mm meteobridge W/m2
00:39 0.4 °C -3.7 °C 1028.7 hPa Calm     74% 0 mm meteobridge W/m2
00:44 0.4 °C -3.9 °C 1028.7 hPa Calm     73% 0 mm meteobridge W/m2
00:49 0.4 °C -3.9 °C 1028.7 hPa Calm     73% 0 mm meteobridge W/m2
00:54 0.3 °C -4 °C 1028.7 hPa Calm     73% 0 mm meteobridge W/m2
00:59 0.3 °C -4 °C 1028.7 hPa Calm     73% 0 mm meteobridge W/m2
01:04 0.2 °C -4.1 °C 1028.7 hPa Calm     73% 0 mm meteobridge W/m2
01:09 0.2 °C -4.1 °C 1028.7 hPa Calm     73% 0 mm meteobridge W/m2
01:14 0.2 °C -4.1 °C 1028.7 hPa Calm     73% 0 mm meteobridge W/m2
01:19 0.1 °C -4.2 °C 1028.7 hPa Calm     73% 0 mm meteobridge W/m2
01:24 0.1 °C -4.3 °C 1028.3 hPa Calm     72% 0 mm meteobridge W/m2
01:29 0 °C -4.4 °C 1028.3 hPa Calm     72% 0 mm meteobridge W/m2
01:34 -0.1 °C -4.5 °C 1028.3 hPa Calm     72% 0 mm meteobridge W/m2
01:39 -0.2 °C -4.6 °C 1028.3 hPa Calm     72% 0 mm meteobridge W/m2
01:44 -0.2 °C -4.6 °C 1028.3 hPa Calm     72% 0 mm meteobridge W/m2
01:49 -0.3 °C -4.9 °C 1028.3 hPa Calm     71% 0 mm meteobridge W/m2
01:54 -0.3 °C -4.9 °C 1028.3 hPa Calm     71% 0 mm meteobridge W/m2
01:59 -0.3 °C -4.9 °C 1028.3 hPa Calm     71% 0 mm meteobridge W/m2
02:04 -0.4 °C -5.2 °C 1028.3 hPa Calm     70% 0 mm meteobridge W/m2
02:09 -0.4 °C -5.2 °C 1028.3 hPa Calm     70% 0 mm meteobridge W/m2
02:14 -0.5 °C -5.3 °C 1028.3 hPa Calm     70% 0 mm meteobridge W/m2
02:19 -0.5 °C -5.3 °C 1028.3 hPa Calm     70% 0 mm meteobridge W/m2
02:24 -0.6 °C -5.6 °C 1028.3 hPa Calm     69% 0 mm meteobridge W/m2
02:29 -0.6 °C -5.6 °C 1028.3 hPa Calm     69% 0 mm meteobridge W/m2
02:34 -0.6 °C -5.6 °C 1028.3 hPa Calm     69% 0 mm meteobridge W/m2
02:39 -0.5 °C -5.5 °C 1028.3 hPa Calm     69% 0 mm meteobridge W/m2
02:44 -0.6 °C -5.6 °C 1028.3 hPa Calm     69% 0 mm meteobridge W/m2
02:49 -0.6 °C -5.6 °C 1028.3 hPa Calm     69% 0 mm meteobridge W/m2
02:54 -0.7 °C -5.7 °C 1028.3 hPa Calm     69% 0 mm meteobridge W/m2
02:59 -0.7 °C -5.9 °C 1028.3 hPa Calm     68% 0 mm meteobridge W/m2
03:04 -0.7 °C -5.9 °C 1028.3 hPa Calm     68% 0 mm meteobridge W/m2
03:09 -0.8 °C -6 °C 1028.3 hPa Calm     68% 0 mm meteobridge W/m2
03:14 -0.8 °C -6 °C 1028.7 hPa Calm     68% 0 mm meteobridge W/m2
03:19 -0.8 °C -6.2 °C 1028.7 hPa Calm     67% 0 mm meteobridge W/m2
03:24 -0.8 °C -6.2 °C 1028.3 hPa Calm     67% 0 mm meteobridge W/m2
03:29 -0.8 °C -6.2 °C 1028.3 hPa Calm     67% 0 mm meteobridge W/m2
03:34 -0.8 °C -6.2 °C 1028.3 hPa Calm     67% 0 mm meteobridge W/m2
03:39 -0.8 °C -6.2 °C 1028.3 hPa Calm     67% 0 mm meteobridge W/m2
03:44 -0.8 °C -6.2 °C 1028.3 hPa Calm     67% 0 mm meteobridge W/m2
03:49 -0.9 °C -6.3 °C 1028.3 hPa Calm     67% 0 mm meteobridge W/m2
03:54 -0.9 °C -6.3 °C 1028.3 hPa Calm     67% 0 mm meteobridge W/m2
03:59 -1 °C -6.4 °C 1028.3 hPa Calm     67% 0 mm meteobridge W/m2
04:04 -1.1 °C -6.4 °C 1028.3 hPa Calm     67% 0 mm meteobridge W/m2
04:09 -1.1 °C -6.6 °C 1028.3 hPa Calm     66% 0 mm meteobridge W/m2
04:14 -1.2 °C -6.5 °C 1028.3 hPa Calm     67% 0 mm meteobridge W/m2
04:19 -1.3 °C -6.6 °C 1028.3 hPa Calm     67% 0 mm meteobridge W/m2
04:24 -1.3 °C -6.6 °C 1028.3 hPa Calm     67% 0 mm meteobridge W/m2
04:28 -1.3 °C -6.8 °C 1028.3 hPa Calm     66% 0 mm meteobridge W/m2
04:34 -1.4 °C -6.9 °C 1028.3 hPa Calm     66% 0 mm meteobridge W/m2
04:39 -1.4 °C -6.9 °C 1028.3 hPa Calm     66% 0 mm meteobridge W/m2
04:44 -1.4 °C -6.9 °C 1028.3 hPa Calm     66% 0 mm meteobridge W/m2
04:49 -1.4 °C -7.1 °C 1028.3 hPa Calm     65% 0 mm meteobridge W/m2
04:54 -1.4 °C -7.1 °C 1028.3 hPa Calm     65% 0 mm meteobridge W/m2
04:59 -1.5 °C -7.2 °C 1028.3 hPa Calm     65% 0 mm meteobridge W/m2
05:04 -1.4 °C -7.1 °C 1028.3 hPa Calm     65% 0 mm meteobridge W/m2
05:09 -1.5 °C -7.2 °C 1028.3 hPa Calm     65% 0 mm meteobridge W/m2
05:13 -1.5 °C -7.2 °C 1028.3 hPa Calm     65% 0 mm meteobridge W/m2
05:19 -1.5 °C -7.2 °C 1028.3 hPa Calm     65% 0 mm meteobridge W/m2
05:24 -1.6 °C -7.3 °C 1028.3 hPa Calm     65% 0 mm meteobridge W/m2
05:29 -1.6 °C -7.5 °C 1028.3 hPa Calm     64% 0 mm meteobridge W/m2
05:34 -1.6 °C -7.5 °C 1028.3 hPa Calm     64% 0 mm meteobridge W/m2
05:39 -1.6 °C -7.5 °C 1028.7 hPa Calm     64% 0 mm meteobridge W/m2
05:44 -1.6 °C -7.5 °C 1028.7 hPa Calm     64% 0 mm meteobridge W/m2
05:49 -1.6 °C -7.5 °C 1028.7 hPa Calm     64% 0 mm meteobridge W/m2
05:54 -1.6 °C -7.5 °C 1028.7 hPa Calm     64% 0 mm meteobridge W/m2
05:59 -1.6 °C -7.5 °C 1028.7 hPa Calm     64% 0 mm meteobridge W/m2
06:04 -1.6 °C -7.5 °C 1029 hPa Calm     64% 0 mm meteobridge W/m2
06:09 -1.6 °C -7.5 °C 1029 hPa Calm     64% 0 mm meteobridge W/m2
06:14 -1.6 °C -7.5 °C 1029.3 hPa Calm     64% 0 mm meteobridge W/m2
06:19 -1.6 °C -7.5 °C 1029.3 hPa Calm     64% 0 mm meteobridge W/m2
06:24 -1.7 °C -7.6 °C 1029.3 hPa Calm     64% 0 mm meteobridge W/m2
06:29 -1.7 °C -7.6 °C 1029.3 hPa Calm     64% 0 mm meteobridge W/m2
06:34 -1.7 °C -7.8 °C 1029.3 hPa Calm     63% 0 mm meteobridge W/m2
06:39 -1.7 °C -7.8 °C 1029.3 hPa Calm     63% 0 mm meteobridge W/m2
06:43 -1.7 °C -7.8 °C 1029.3 hPa Calm     63% 0 mm meteobridge W/m2
06:48 -1.7 °C -7.8 °C 1029.3 hPa Calm     63% 0 mm meteobridge W/m2
06:54 -1.7 °C -7.8 °C 1029.3 hPa Calm     63% 0 mm meteobridge W/m2
06:59 -1.7 °C -7.8 °C 1029.3 hPa Calm     63% 0 mm meteobridge W/m2
07:04 -1.7 °C -7.8 °C 1029.3 hPa Calm     63% 0 mm meteobridge W/m2
07:09 -1.7 °C -7.8 °C 1029.3 hPa Calm     63% 0 mm meteobridge W/m2
07:14 -1.7 °C -7.8 °C 1029.3 hPa Calm     63% 0 mm meteobridge W/m2
07:19 -1.7 °C -7.8 °C 1029.3 hPa Calm     63% 0 mm meteobridge W/m2
07:24 -1.7 °C -7.8 °C 1029.3 hPa Calm     63% 0 mm meteobridge W/m2
07:29 -1.8 °C -7.9 °C 1029.7 hPa Calm     63% 0 mm meteobridge W/m2
07:34 -1.8 °C -7.9 °C 1029.7 hPa Calm     63% 0 mm meteobridge W/m2
07:39 -1.8 °C -7.9 °C 1029.7 hPa Calm     63% 0 mm meteobridge W/m2
07:44 -1.8 °C -7.9 °C 1029.7 hPa Calm     63% 0 mm meteobridge W/m2
07:49 -1.7 °C -8 °C 1029.7 hPa Calm     62% 0 mm meteobridge W/m2
07:54 -1.7 °C -8 °C 1030 hPa Calm     62% 0 mm meteobridge W/m2
07:59 -1.7 °C -8 °C 1030 hPa Calm     62% 0 mm meteobridge W/m2
08:04 -1.6 °C -7.9 °C 1030 hPa Calm     62% 0 mm meteobridge W/m2
08:09 -1.4 °C -7.9 °C 1030 hPa Calm     61% 0 mm meteobridge W/m2
08:14 -1.3 °C -7.9 °C 1030 hPa Calm     61% 0 mm meteobridge W/m2
08:19 -1.3 °C -7.9 °C 1030 hPa Calm     61% 0 mm meteobridge W/m2
08:24 -1.2 °C -7.8 °C 1030.4 hPa Calm     61% 0 mm meteobridge W/m2
08:29 -1 °C -7.8 °C 1030.4 hPa Calm     60% 0 mm meteobridge W/m2
08:34 -0.8 °C -7.6 °C 1030.4 hPa Calm     60% 0 mm meteobridge W/m2
08:39 -0.7 °C -7.7 °C 1030.4 hPa Calm     59% 0 mm meteobridge W/m2
08:44 -0.5 °C -7.5 °C 1030.4 hPa Calm     59% 0 mm meteobridge W/m2
08:49 -0.3 °C -7.3 °C 1030.4 hPa Calm     59% 0 mm meteobridge W/m2
08:54 -0.1 °C -7.4 °C 1030.4 hPa Calm     58% 0 mm meteobridge W/m2
08:59 0.3 °C -7 °C 1030.7 hPa Calm     58% 0 mm meteobridge W/m2
09:04 0.4 °C -7.1 °C 1030.7 hPa Calm     57% 0 mm meteobridge W/m2
09:09 0.6 °C -6.9 °C 1030.7 hPa Calm     57% 0 mm meteobridge W/m2
09:14 0.8 °C -6.8 °C 1030.7 hPa Calm     57% 0 mm meteobridge W/m2
09:19 1.3 °C -6.5 °C 1031 hPa Calm     56% 0 mm meteobridge W/m2
09:24 1.6 °C -6.2 °C 1031 hPa Calm     56% 0 mm meteobridge W/m2
09:29 2.1 °C -6 °C 1031 hPa Calm     55% 0 mm meteobridge W/m2
09:34 2.7 °C -5.7 °C 1031 hPa Calm     54% 0 mm meteobridge W/m2
09:39 3.3 °C -5.4 °C 1030.7 hPa Calm     53% 0 mm meteobridge W/m2
09:44 3.9 °C -4.8 °C 1030.7 hPa Calm     53% 0 mm meteobridge W/m2
09:49 4.6 °C -3.9 °C 1030.7 hPa Calm     54% 0 mm meteobridge W/m2
09:54 5.2 °C -1.7 °C 1030.7 hPa Calm     61% 0 mm meteobridge W/m2
09:59 5.4 °C 0.6 °C 1030.7 hPa Calm     71% 0 mm meteobridge W/m2
10:04 5.7 °C 1.8 °C 1030.7 hPa Calm     76% 0 mm meteobridge W/m2
10:08 6.1 °C 2.4 °C 1030.7 hPa Calm     77% 0 mm meteobridge W/m2
10:13 6.6 °C 2.7 °C 1030.7 hPa Calm     76% 0 mm meteobridge W/m2
10:19 7.2 °C 3.1 °C 1030.7 hPa Calm     75% 0 mm meteobridge W/m2
10:24 7.6 °C 3.1 °C 1030.7 hPa Calm     73% 0 mm meteobridge W/m2
10:29 7.9 °C 3 °C 1030.4 hPa Calm     71% 0 mm meteobridge W/m2
10:34 8.2 °C 2.9 °C 1030.4 hPa Calm     69% 0 mm meteobridge W/m2
10:38 8.7 °C 2.7 °C 1030.4 hPa Calm   1.6 km/h 66% 0 mm meteobridge W/m2
10:44 9.3 °C 3.1 °C 1030.4 hPa Calm     65% 0 mm meteobridge W/m2
10:49 9.7 °C 3 °C 1030.4 hPa Calm   1.6 km/h 63% 0 mm meteobridge W/m2
10:54 10.2 °C 3.5 °C 1030.4 hPa Calm     63% 0 mm meteobridge W/m2
10:59 10.5 °C 3.5 °C 1030 hPa Calm   1.6 km/h 62% 0 mm meteobridge W/m2
11:04 10.9 °C 3.4 °C 1030 hPa Calm     60% 0 mm meteobridge W/m2
11:09 11.2 °C 3.2 °C 1030 hPa Calm     58% 0 mm meteobridge W/m2
11:14 11.6 °C 3.1 °C 1030 hPa Calm     56% 0 mm meteobridge W/m2
11:19 11.9 °C 3.9 °C 1030 hPa Calm     58% 0 mm meteobridge W/m2
11:24 12.3 °C 4.3 °C 1030 hPa Calm     58% 0 mm meteobridge W/m2
11:28 12.4 °C 4.1 °C 1029.7 hPa Calm     57% 0 mm meteobridge W/m2
11:34 12.7 °C 4.1 °C 1029.7 hPa Calm     56% 0 mm meteobridge W/m2
11:39 13.2 °C 5.1 °C 1029.7 hPa Calm     58% 0 mm meteobridge W/m2
11:44 13.4 °C 3.7 °C 1029.7 hPa Calm     52% 0 mm meteobridge W/m2
11:49 13.7 °C 3.7 °C 1029.7 hPa Calm     51% 0 mm meteobridge W/m2
11:54 13.9 °C 3.6 °C 1029.3 hPa North 3.2 km/h 3.2 km/h 50% 0 mm meteobridge W/m2
11:59 14.1 °C 3.8 °C 1029.3 hPa NW 1.4 km/h 1.6 km/h 50% 0 mm meteobridge W/m2
12:04 14.1 °C 3.8 °C 1029.3 hPa Calm     50% 0 mm meteobridge W/m2
12:09 14.2 °C 4.2 °C 1029.3 hPa Calm     51% 0 mm meteobridge W/m2
12:14 14.2 °C 3.9 °C 1029.3 hPa Calm     50% 0 mm meteobridge W/m2
12:19 14.2 °C 4.5 °C 1029 hPa Calm     52% 0 mm meteobridge W/m2
12:24 14.1 °C 3.3 °C 1029 hPa Calm     48% 0 mm meteobridge W/m2
12:29 14.1 °C 3.8 °C 1029 hPa Calm     50% 0 mm meteobridge W/m2
12:34 14.2 °C 3 °C 1029 hPa Calm     47% 0 mm meteobridge W/m2
12:39 14.4 °C 4.1 °C 1028.7 hPa Calm   1.6 km/h 50% 0 mm meteobridge W/m2
12:44 14.6 °C 2.8 °C 1028.7 hPa Calm     45% 0 mm meteobridge W/m2
12:49 14.9 °C 3.7 °C 1028.7 hPa Calm     47% 0 mm meteobridge W/m2
12:54 15.1 °C 3.6 °C 1028.3 hPa Calm   1.6 km/h 46% 0 mm meteobridge W/m2
12:59 15.2 °C 3 °C 1028.3 hPa Calm     44% 0 mm meteobridge W/m2
13:04 15.3 °C 3.4 °C 1028.3 hPa Calm   1.6 km/h 45% 0 mm meteobridge W/m2
13:09 15.5 °C 3.3 °C 1028.3 hPa Calm   1.6 km/h 44% 0 mm meteobridge W/m2
13:14 15.5 °C 3 °C 1028.3 hPa NW 1.4 km/h 4.8 km/h 43% 0 mm meteobridge W/m2
13:19 15.6 °C 4 °C 1028 hPa Calm   4.8 km/h 46% 0 mm meteobridge W/m2
13:24 15.6 °C 4.6 °C 1028 hPa Calm     48% 0 mm meteobridge W/m2
13:29 15.7 °C 5 °C 1028 hPa Calm   1.6 km/h 49% 0 mm meteobridge W/m2
13:34 15.7 °C 4.7 °C 1028 hPa Calm   1.6 km/h 48% 0 mm meteobridge W/m2
13:39 15.8 °C 4.8 °C 1028 hPa Calm     48% 0 mm meteobridge W/m2
13:44 15.8 °C 4.8 °C 1028 hPa Calm   4.8 km/h 48% 0 mm meteobridge W/m2
13:49 15.8 °C 4.8 °C 1028 hPa Calm     48% 0 mm meteobridge W/m2
13:54 15.8 °C 4.5 °C 1027.7 hPa Calm   4.8 km/h 47% 0 mm meteobridge W/m2
13:59 15.8 °C 4.8 °C 1027.7 hPa Calm   6.4 km/h 48% 0 mm meteobridge W/m2
14:04 15.8 °C 4.2 °C 1027.7 hPa Calm   1.6 km/h 46% 0 mm meteobridge W/m2
14:09 15.9 °C 4 °C 1027.7 hPa Calm     45% 0 mm meteobridge W/m2
14:14 15.9 °C 4.3 °C 1027.7 hPa Calm     46% 0 mm meteobridge W/m2
14:19 16.1 °C 4.2 °C 1027.3 hPa Calm     45% 0 mm meteobridge W/m2
14:24 16.1 °C 4.2 °C 1027.3 hPa NNW 1.4 km/h 4.8 km/h 45% 0 mm meteobridge W/m2
14:29 16.1 °C 4.5 °C 1027.3 hPa NW 1.4 km/h 1.6 km/h 46% 0 mm meteobridge W/m2
14:34 16 °C 4.4 °C 1027.3 hPa Calm   1.6 km/h 46% 0 mm meteobridge W/m2
14:39 15.8 °C 4.8 °C 1027.3 hPa Calm   1.6 km/h 48% 0 mm meteobridge W/m2
14:44 15.8 °C 5.1 °C 1027.3 hPa Calm     49% 0 mm meteobridge W/m2
14:49 15.7 °C 5 °C 1027.3 hPa Calm   1.6 km/h 49% 0 mm meteobridge W/m2
14:54 15.6 °C 4.6 °C 1027.3 hPa Calm   1.6 km/h 48% 0 mm meteobridge W/m2
14:59 15.4 °C 4.7 °C 1027.3 hPa Calm     49% 0 mm meteobridge W/m2
15:04 15.4 °C 4.7 °C 1027.3 hPa Calm     49% 0 mm meteobridge W/m2
15:08 15.3 °C 4.4 °C 1027.3 hPa Calm   3.2 km/h 48% 0 mm meteobridge W/m2
15:14 15.2 °C 5.4 °C 1027 hPa Calm     52% 0 mm meteobridge W/m2
15:19 15 °C 4.9 °C 1027 hPa Calm     51% 0 mm meteobridge W/m2
15:24 14.8 °C 4.5 °C 1027 hPa Calm     50% 0 mm meteobridge W/m2
15:29 14.8 °C 5 °C 1027 hPa Calm     52% 0 mm meteobridge W/m2
15:34 14.7 °C 4.4 °C 1027 hPa Calm   3.2 km/h 50% 0 mm meteobridge W/m2
15:39 14.7 °C 4.7 °C 1027 hPa Calm     51% 0 mm meteobridge W/m2
15:44 14.6 °C 5.4 °C 1027 hPa Calm     54% 0 mm meteobridge W/m2
15:49 14.4 °C 4.9 °C 1027 hPa Calm     53% 0 mm meteobridge W/m2
15:54 14.3 °C 5.4 °C 1027 hPa Calm     55% 0 mm meteobridge W/m2
15:59 14.3 °C 5.1 °C 1027 hPa Calm     54% 0 mm meteobridge W/m2
16:04 14.2 °C 5.5 °C 1027 hPa Calm     56% 0 mm meteobridge W/m2
16:09 14.1 °C 5.5 °C 1027 hPa Calm     56% 0 mm meteobridge W/m2
16:14 13.9 °C 5 °C 1027 hPa Calm     55% 0 mm meteobridge W/m2
16:19 13.9 °C 5.3 °C 1027 hPa Calm     56% 0 mm meteobridge W/m2
16:24 13.8 °C 4.9 °C 1027 hPa Calm     55% 0 mm meteobridge W/m2
16:29 13.7 °C 5.3 °C 1027 hPa Calm     57% 0 mm meteobridge W/m2
16:34 13.6 °C 5 °C 1027 hPa Calm     56% 0 mm meteobridge W/m2
16:39 13.6 °C 5.2 °C 1027 hPa Calm     57% 0 mm meteobridge W/m2
16:44 13.4 °C 5.1 °C 1027 hPa Calm     57% 0 mm meteobridge W/m2
16:49 13.3 °C 5.2 °C 1027 hPa Calm     58% 0 mm meteobridge W/m2
16:54 13.2 °C 5.4 °C 1027 hPa Calm     59% 0 mm meteobridge W/m2
16:59 13 °C 5.4 °C 1027 hPa Calm     60% 0 mm meteobridge W/m2
17:04 12.8 °C 5.5 °C 1027 hPa Calm     61% 0 mm meteobridge W/m2
17:09 12.6 °C 5.7 °C 1027 hPa Calm     63% 0 mm meteobridge W/m2
17:14 12.3 °C 5.5 °C 1027 hPa Calm     63% 0 mm meteobridge W/m2
17:19 12.2 °C 5.6 °C 1027 hPa Calm     64% 0 mm meteobridge W/m2
17:24 11.9 °C 5.3 °C 1027 hPa Calm     64% 0 mm meteobridge W/m2
17:29 11.8 °C 5.2 °C 1027 hPa Calm     64% 0 mm meteobridge W/m2
17:34 11.6 °C 5.2 °C 1027 hPa Calm     65% 0 mm meteobridge W/m2
17:39 11.2 °C 5.1 °C 1027 hPa Calm     66% 0 mm meteobridge W/m2
17:44 10.9 °C 5 °C 1027 hPa Calm     67% 0 mm meteobridge W/m2
17:49 10.7 °C 5 °C 1027 hPa Calm     68% 0 mm meteobridge W/m2
17:54 10.4 °C 5 °C 1027 hPa Calm     69% 0 mm meteobridge W/m2
17:59 10.2 °C 4.8 °C 1027 hPa Calm     69% 0 mm meteobridge W/m2
18:04 9.9 °C 4.7 °C 1027 hPa Calm     70% 0 mm meteobridge W/m2
18:08 9.7 °C 4.7 °C 1027 hPa Calm     71% 0 mm meteobridge W/m2
18:14 9.3 °C 4.5 °C 1027.3 hPa Calm     72% 0 mm meteobridge W/m2
18:19 9.1 °C 4.5 °C 1027.3 hPa Calm     73% 0 mm meteobridge W/m2
18:24 8.8 °C 4.2 °C 1027.3 hPa Calm     73% 0 mm meteobridge W/m2
18:29 8.7 °C 4.3 °C 1027.3 hPa Calm     74% 0 mm meteobridge W/m2
18:34 8.5 °C 4.1 °C 1027.3 hPa Calm     74% 0 mm meteobridge W/m2
18:38 8.3 °C 3.9 °C 1027.3 hPa Calm     74% 0 mm meteobridge W/m2
18:44 8.2 °C 4 °C 1027.3 hPa Calm     75% 0 mm meteobridge W/m2
18:49 8 °C 3.8 °C 1027.3 hPa Calm     75% 0 mm meteobridge W/m2
18:54 7.7 °C 3.5 °C 1027.7 hPa Calm     75% 0 mm meteobridge W/m2
18:59 7.5 °C 3.4 °C 1027.7 hPa Calm     75% 0 mm meteobridge W/m2
19:04 7.3 °C 3.3 °C 1027.7 hPa Calm     76% 0 mm meteobridge W/m2
19:08 7.2 °C 3.1 °C 1027.7 hPa Calm     75% 0 mm meteobridge W/m2
19:14 7 °C 2.9 °C 1027.7 hPa Calm     75% 0 mm meteobridge W/m2
19:19 6.9 °C 2.8 °C 1027.7 hPa Calm     75% 0 mm meteobridge W/m2
19:24 6.7 °C 2.6 °C 1028 hPa Calm     75% 0 mm meteobridge W/m2
19:29 6.6 °C 2.5 °C 1028 hPa Calm     75% 0 mm meteobridge W/m2
19:34 6.4 °C 2.3 °C 1028.3 hPa Calm     75% 0 mm meteobridge W/m2
19:39 6.3 °C 2.2 °C 1028.3 hPa Calm     75% 0 mm meteobridge W/m2
19:44 6.2 °C 1.9 °C 1028.3 hPa Calm     74% 0 mm meteobridge W/m2
19:49 6 °C 1.7 °C 1028.3 hPa Calm     74% 0 mm meteobridge W/m2
19:54 5.9 °C 1.6 °C 1028.3 hPa Calm     74% 0 mm meteobridge W/m2
19:59 5.8 °C 1.3 °C 1028.3 hPa Calm     73% 0 mm meteobridge W/m2
20:04 5.7 °C 1.2 °C 1028.3 hPa Calm     73% 0 mm meteobridge W/m2
20:09 5.6 °C 1.1 °C 1028.7 hPa Calm     73% 0 mm meteobridge W/m2
20:14 5.4 °C 0.8 °C 1028.7 hPa Calm     72% 0 mm meteobridge W/m2
20:19 5.3 °C 0.7 °C 1028.7 hPa Calm     72% 0 mm meteobridge W/m2
20:24 5.2 °C 0.4 °C 1028.7 hPa Calm     71% 0 mm meteobridge W/m2
20:29 5.1 °C 0.3 °C 1028.7 hPa Calm     71% 0 mm meteobridge W/m2
20:34 4.9 °C 0.1 °C 1029 hPa Calm     71% 0 mm meteobridge W/m2
20:39 4.8 °C -0.2 °C 1029 hPa Calm     70% 0 mm meteobridge W/m2
20:44 4.7 °C -0.3 °C 1028.7 hPa Calm     70% 0 mm meteobridge W/m2
20:49 4.6 °C -0.4 °C 1028.7 hPa Calm     70% 0 mm meteobridge W/m2
20:54 4.5 °C -0.7 °C 1028.7 hPa Calm     69% 0 mm meteobridge W/m2
20:59 4.3 °C -0.9 °C 1029 hPa Calm     69% 0 mm meteobridge W/m2
21:04 4.3 °C -1.1 °C 1029 hPa Calm     68% 0 mm meteobridge W/m2
21:09 4.2 °C -1.2 °C 1029 hPa Calm     68% 0 mm meteobridge W/m2
21:14 4.1 °C -1.3 °C 1029 hPa Calm     68% 0 mm meteobridge W/m2
21:19 4 °C -1.6 °C 1029 hPa Calm     67% 0 mm meteobridge W/m2
21:24 3.9 °C -1.7 °C 1029.3 hPa Calm     67% 0 mm meteobridge W/m2
21:29 3.8 °C -1.8 °C 1029.3 hPa Calm     67% 0 mm meteobridge W/m2
21:34 3.7 °C -1.9 °C 1029.3 hPa Calm     67% 0 mm meteobridge W/m2
21:39 3.6 °C -2.2 °C 1029.3 hPa Calm     66% 0 mm meteobridge W/m2
21:44 3.5 °C -2.3 °C 1029.3 hPa Calm     66% 0 mm meteobridge W/m2
21:49 3.4 °C -2.3 °C 1029.3 hPa Calm     66% 0 mm meteobridge W/m2
21:54 3.3 °C -2.7 °C 1029.3 hPa Calm     65% 0 mm meteobridge W/m2
21:59 3.2 °C -2.7 °C 1029.3 hPa Calm     65% 0 mm meteobridge W/m2
22:04 3.2 °C -2.7 °C 1029.3 hPa Calm     65% 0 mm meteobridge W/m2
22:09 3.1 °C -2.8 °C 1029.3 hPa Calm     65% 0 mm meteobridge W/m2
22:14 3.1 °C -3 °C 1029.3 hPa Calm     64% 0 mm meteobridge W/m2
22:19 2.9 °C -3.2 °C 1029.3 hPa Calm     64% 0 mm meteobridge W/m2
22:24 2.9 °C -3.2 °C 1029.3 hPa Calm     64% 0 mm meteobridge W/m2
22:29 2.9 °C -3.2 °C 1029.3 hPa Calm     64% 0 mm meteobridge W/m2
22:34 2.8 °C -3.3 °C 1029.3 hPa Calm     64% 0 mm meteobridge W/m2
22:39 2.7 °C -3.4 °C 1029.3 hPa Calm     64% 0 mm meteobridge W/m2
22:44 2.7 °C -3.6 °C 1029.3 hPa Calm     63% 0 mm meteobridge W/m2
22:49 2.7 °C -3.6 °C 1029.3 hPa Calm     63% 0 mm meteobridge W/m2
22:54 2.6 °C -3.7 °C 1029 hPa Calm     63% 0 mm meteobridge W/m2
22:59 2.5 °C -3.8 °C 1029 hPa Calm     63% 0 mm meteobridge W/m2
23:04 2.4 °C -3.9 °C 1029 hPa Calm     63% 0 mm meteobridge W/m2
23:09 2.4 °C -3.9 °C 1029 hPa Calm     63% 0 mm meteobridge W/m2
23:14 2.3 °C -4 °C 1029 hPa Calm     63% 0 mm meteobridge W/m2
23:19 2.3 °C -4.2 °C 1029 hPa Calm     62% 0 mm meteobridge W/m2
23:24 2.3 °C -4.2 °C 1029 hPa Calm     62% 0 mm meteobridge W/m2
23:29 2.3 °C -4.4 °C 1029 hPa Calm     61% 0 mm meteobridge W/m2
23:34 2.3 °C -4.4 °C 1029 hPa Calm     61% 0 mm meteobridge W/m2
23:39 2.3 °C -4.4 °C 1029 hPa Calm     61% 0 mm meteobridge W/m2
23:44 2.3 °C -4.4 °C 1029 hPa Calm     61% 0 mm meteobridge W/m2
23:49 2.2 °C -4.5 °C 1029 hPa Calm     61% 0 mm meteobridge W/m2
23:54 2.2 °C -4.5 °C 1029 hPa Calm     61% 0 mm meteobridge W/m2
23:59 2.2 °C -4.5 °C 1029 hPa Calm     61% 0 mm meteobridge W/m2
EllijayWeather
Compliments of Weather Underground - 2.5 mb